Saint Morgan, Illinois
Current Conditions -  °F | °C
As of 4:58 PM on Saturday 25 Oct 2014 (Local Time) from KBLV Reporting Station
Clear Clear  
Wind Chill: 77°   Ceiling: Unl
Heat Index: 79°   Visibility: 10mi
Dew Point: 58°   Wind: 6mph
Humidity: 51%   Direction: 300°WNW
Pressure: 30"   Gusts: NA
Location:  38.6397°N, 89.6153°W
Report Text: KBLV 252158Z AUTO 30005KT 10SM CLR 25/14 A3000 RMK AO2 SLP160 T02520144 $
Loading
Personal Weather Stations






























Interactive Weather Map
Tropical Storm Tracking
New forecast layout! Learn more

10-Day Weather Forecast

Advertisements
Track Severe Weather on mobile